sensor_id;sensor_type;location;lat;lon;timestamp;temperature;humidity
43151;DHT22;28755;51.478;5.702;2023-09-19T00:01:19;15.90;99.90
43151;DHT22;28755;51.478;5.702;2023-09-19T00:03:46;15.90;99.90
43151;DHT22;28755;51.478;5.702;2023-09-19T00:06:11;15.90;99.90
43151;DHT22;28755;51.478;5.702;2023-09-19T00:08:38;15.80;99.90
43151;DHT22;28755;51.478;5.702;2023-09-19T00:11:04;15.90;99.90
43151;DHT22;28755;51.478;5.702;2023-09-19T00:13:32;15.80;99.90
43151;DHT22;28755;51.478;5.702;2023-09-19T00:15:59;15.80;99.90
43151;DHT22;28755;51.478;5.702;2023-09-19T00:18:25;15.80;99.90
43151;DHT22;28755;51.478;5.702;2023-09-19T00:20:58;15.80;99.90
43151;DHT22;28755;51.478;5.702;2023-09-19T00:23:24;15.90;99.90
43151;DHT22;28755;51.478;5.702;2023-09-19T00:25:50;15.80;99.90
43151;DHT22;28755;51.478;5.702;2023-09-19T00:28:16;15.80;99.90
43151;DHT22;28755;51.478;5.702;2023-09-19T00:30:44;15.70;99.90
43151;DHT22;28755;51.478;5.702;2023-09-19T00:33:10;15.70;99.90
43151;DHT22;28755;51.478;5.702;2023-09-19T00:35:37;15.60;99.90
43151;DHT22;28755;51.478;5.702;2023-09-19T00:38:02;15.60;99.90
43151;DHT22;28755;51.478;5.702;2023-09-19T00:40:29;15.60;99.90
43151;DHT22;28755;51.478;5.702;2023-09-19T00:42:57;15.60;99.90
43151;DHT22;28755;51.478;5.702;2023-09-19T00:45:27;15.60;99.90
43151;DHT22;28755;51.478;5.702;2023-09-19T00:47:53;15.60;99.90
43151;DHT22;28755;51.478;5.702;2023-09-19T00:50:22;15.60;99.90
43151;DHT22;28755;51.478;5.702;2023-09-19T00:52:49;15.60;99.90
43151;DHT22;28755;51.478;5.702;2023-09-19T00:55:16;15.60;99.90
43151;DHT22;28755;51.478;5.702;2023-09-19T00:57:45;15.60;99.90
43151;DHT22;28755;51.478;5.702;2023-09-19T01:00:11;15.60;99.90
43151;DHT22;28755;51.478;5.702;2023-09-19T01:02:41;15.60;99.90
43151;DHT22;28755;51.478;5.702;2023-09-19T01:05:09;15.50;99.90
43151;DHT22;28755;51.478;5.702;2023-09-19T01:07:35;15.60;99.90
43151;DHT22;28755;51.478;5.702;2023-09-19T01:10:03;15.60;99.90
43151;DHT22;28755;51.478;5.702;2023-09-19T01:17:49;15.50;99.90
43151;DHT22;28755;51.478;5.702;2023-09-19T01:20:39;15.50;99.90
43151;DHT22;28755;51.478;5.702;2023-09-19T01:23:11;15.50;99.90
43151;DHT22;28755;51.478;5.702;2023-09-19T01:26:04;15.40;99.90
43151;DHT22;28755;51.478;5.702;2023-09-19T01:31:28;15.40;99.90
43151;DHT22;28755;51.478;5.702;2023-09-19T01:34:01;15.40;99.90
43151;DHT22;28755;51.478;5.702;2023-09-19T01:36:34;15.40;99.90
43151;DHT22;28755;51.478;5.702;2023-09-19T01:39:05;15.30;99.90
43151;DHT22;28755;51.478;5.702;2023-09-19T01:41:45;15.30;99.90
43151;DHT22;28755;51.478;5.702;2023-09-19T01:47:38;15.30;99.90
43151;DHT22;28755;51.478;5.702;2023-09-19T01:50:21;15.30;99.90
43151;DHT22;28755;51.478;5.702;2023-09-19T01:53:04;15.30;99.90
43151;DHT22;28755;51.478;5.702;2023-09-19T01:55:30;15.20;99.90
43151;DHT22;28755;51.478;5.702;2023-09-19T01:58:08;15.20;99.90
43151;DHT22;28755;51.478;5.702;2023-09-19T02:00:41;15.30;99.90
43151;DHT22;28755;51.478;5.702;2023-09-19T02:03:08;15.20;99.90
43151;DHT22;28755;51.478;5.702;2023-09-19T02:05:34;15.20;99.90
43151;DHT22;28755;51.478;5.702;2023-09-19T02:07:59;15.20;99.90
43151;DHT22;28755;51.478;5.702;2023-09-19T02:10:26;15.20;99.90
43151;DHT22;28755;51.478;5.702;2023-09-19T02:12:51;15.20;99.90
43151;DHT22;28755;51.478;5.702;2023-09-19T02:15:17;15.20;99.90
43151;DHT22;28755;51.478;5.702;2023-09-19T02:17:43;15.10;99.90
43151;DHT22;28755;51.478;5.702;2023-09-19T02:20:10;15.10;99.90
43151;DHT22;28755;51.478;5.702;2023-09-19T02:22:43;15.10;99.90
43151;DHT22;28755;51.478;5.702;2023-09-19T02:25:09;15.10;99.90
43151;DHT22;28755;51.478;5.702;2023-09-19T02:27:35;15.10;99.90
43151;DHT22;28755;51.478;5.702;2023-09-19T02:30:01;15.10;99.90
43151;DHT22;28755;51.478;5.702;2023-09-19T02:32:30;15.10;99.90
43151;DHT22;28755;51.478;5.702;2023-09-19T02:34:57;15.00;99.90
43151;DHT22;28755;51.478;5.702;2023-09-19T02:37:24;15.10;99.90
43151;DHT22;28755;51.478;5.702;2023-09-19T02:39:49;15.00;99.90
43151;DHT22;28755;51.478;5.702;2023-09-19T02:42:15;15.00;99.90
43151;DHT22;28755;51.478;5.702;2023-09-19T02:44:40;15.00;99.90
43151;DHT22;28755;51.478;5.702;2023-09-19T02:47:06;14.90;99.90
43151;DHT22;28755;51.478;5.702;2023-09-19T02:49:31;14.90;99.90
43151;DHT22;28755;51.478;5.702;2023-09-19T02:51:58;14.90;99.90
43151;DHT22;28755;51.478;5.702;2023-09-19T02:54:24;14.90;99.90
43151;DHT22;28755;51.478;5.702;2023-09-19T02:56:50;14.80;99.90
43151;DHT22;28755;51.478;5.702;2023-09-19T02:59:16;14.80;99.90
43151;DHT22;28755;51.478;5.702;2023-09-19T03:01:44;14.90;99.90
43151;DHT22;28755;51.478;5.702;2023-09-19T03:04:13;14.90;99.90
43151;DHT22;28755;51.478;5.702;2023-09-19T03:06:39;14.80;99.90
43151;DHT22;28755;51.478;5.702;2023-09-19T03:09:05;14.80;99.90
43151;DHT22;28755;51.478;5.702;2023-09-19T03:11:38;14.80;99.90
43151;DHT22;28755;51.478;5.702;2023-09-19T03:14:05;14.80;99.90
43151;DHT22;28755;51.478;5.702;2023-09-19T03:16:31;14.80;99.90
43151;DHT22;28755;51.478;5.702;2023-09-19T03:18:57;14.80;99.90
43151;DHT22;28755;51.478;5.702;2023-09-19T03:21:23;14.80;99.90
43151;DHT22;28755;51.478;5.702;2023-09-19T03:23:49;14.70;99.90
43151;DHT22;28755;51.478;5.702;2023-09-19T03:26:15;14.70;99.90
43151;DHT22;28755;51.478;5.702;2023-09-19T03:28:41;14.70;99.90
43151;DHT22;28755;51.478;5.702;2023-09-19T03:31:07;14.70;99.90
43151;DHT22;28755;51.478;5.702;2023-09-19T03:33:33;14.70;99.90
43151;DHT22;28755;51.478;5.702;2023-09-19T03:36:00;14.70;99.90
43151;DHT22;28755;51.478;5.702;2023-09-19T03:38:27;14.70;99.90
43151;DHT22;28755;51.478;5.702;2023-09-19T03:40:54;14.60;99.90
43151;DHT22;28755;51.478;5.702;2023-09-19T03:43:19;14.60;99.90
43151;DHT22;28755;51.478;5.702;2023-09-19T03:45:45;14.60;99.90
43151;DHT22;28755;51.478;5.702;2023-09-19T03:48:13;14.70;99.90
43151;DHT22;28755;51.478;5.702;2023-09-19T03:50:39;14.60;99.90
43151;DHT22;28755;51.478;5.702;2023-09-19T03:53:04;14.60;99.90
43151;DHT22;28755;51.478;5.702;2023-09-19T03:55:32;14.50;99.90
43151;DHT22;28755;51.478;5.702;2023-09-19T03:58:01;14.60;99.90
43151;DHT22;28755;51.478;5.702;2023-09-19T04:00:26;14.50;99.90
43151;DHT22;28755;51.478;5.702;2023-09-19T04:02:52;14.60;99.90
43151;DHT22;28755;51.478;5.702;2023-09-19T04:05:18;14.50;99.90
43151;DHT22;28755;51.478;5.702;2023-09-19T04:07:44;14.40;99.90
43151;DHT22;28755;51.478;5.702;2023-09-19T04:10:10;14.50;99.90
43151;DHT22;28755;51.478;5.702;2023-09-19T04:12:37;14.40;99.90
43151;DHT22;28755;51.478;5.702;2023-09-19T04:15:02;14.50;99.90
43151;DHT22;28755;51.478;5.702;2023-09-19T04:17:28;14.40;99.90
43151;DHT22;28755;51.478;5.702;2023-09-19T04:19:54;14.40;99.90
43151;DHT22;28755;51.478;5.702;2023-09-19T04:22:19;14.40;99.90
43151;DHT22;28755;51.478;5.702;2023-09-19T04:24:45;14.40;99.90
43151;DHT22;28755;51.478;5.702;2023-09-19T04:27:10;14.40;99.90
43151;DHT22;28755;51.478;5.702;2023-09-19T04:29:40;14.40;99.90
43151;DHT22;28755;51.478;5.702;2023-09-19T04:32:07;14.40;99.90
43151;DHT22;28755;51.478;5.702;2023-09-19T04:34:33;14.40;99.90
43151;DHT22;28755;51.478;5.702;2023-09-19T04:37:00;14.40;99.90
43151;DHT22;28755;51.478;5.702;2023-09-19T04:39:26;14.40;99.90
43151;DHT22;28755;51.478;5.702;2023-09-19T04:41:52;14.40;99.90
43151;DHT22;28755;51.478;5.702;2023-09-19T04:44:18;14.40;99.90
43151;DHT22;28755;51.478;5.702;2023-09-19T04:46:44;14.40;99.90
43151;DHT22;28755;51.478;5.702;2023-09-19T04:49:10;14.40;99.90
43151;DHT22;28755;51.478;5.702;2023-09-19T04:51:36;14.40;99.90
43151;DHT22;28755;51.478;5.702;2023-09-19T04:54:02;14.40;99.90
43151;DHT22;28755;51.478;5.702;2023-09-19T04:56:28;14.40;99.90
43151;DHT22;28755;51.478;5.702;2023-09-19T04:58:54;14.40;99.90
43151;DHT22;28755;51.478;5.702;2023-09-19T05:01:19;14.40;99.90
43151;DHT22;28755;51.478;5.702;2023-09-19T05:03:48;14.40;99.90
43151;DHT22;28755;51.478;5.702;2023-09-19T05:06:21;14.50;99.90
43151;DHT22;28755;51.478;5.702;2023-09-19T05:08:47;14.50;99.90
43151;DHT22;28755;51.478;5.702;2023-09-19T05:11:18;14.60;99.90
43151;DHT22;28755;51.478;5.702;2023-09-19T05:13:44;14.60;99.90
43151;DHT22;28755;51.478;5.702;2023-09-19T05:16:10;14.70;99.90
43151;DHT22;28755;51.478;5.702;2023-09-19T05:18:36;14.80;99.90
43151;DHT22;28755;51.478;5.702;2023-09-19T05:21:04;14.80;99.90
43151;DHT22;28755;51.478;5.702;2023-09-19T05:23:30;14.80;99.90
43151;DHT22;28755;51.478;5.702;2023-09-19T05:25:56;14.90;99.90
43151;DHT22;28755;51.478;5.702;2023-09-19T05:28:23;14.90;99.90
43151;DHT22;28755;51.478;5.702;2023-09-19T05:30:49;14.90;99.90
43151;DHT22;28755;51.478;5.702;2023-09-19T05:33:15;14.80;99.90
43151;DHT22;28755;51.478;5.702;2023-09-19T05:35:41;14.90;99.90
43151;DHT22;28755;51.478;5.702;2023-09-19T05:38:07;14.90;99.90
43151;DHT22;28755;51.478;5.702;2023-09-19T05:40:35;14.90;99.90
43151;DHT22;28755;51.478;5.702;2023-09-19T05:43:01;15.00;99.90
43151;DHT22;28755;51.478;5.702;2023-09-19T05:45:29;15.00;99.90
43151;DHT22;28755;51.478;5.702;2023-09-19T05:47:54;15.00;99.90
43151;DHT22;28755;51.478;5.702;2023-09-19T05:50:29;15.00;99.90
43151;DHT22;28755;51.478;5.702;2023-09-19T05:52:55;15.00;99.90
43151;DHT22;28755;51.478;5.702;2023-09-19T05:55:21;15.00;99.90
43151;DHT22;28755;51.478;5.702;2023-09-19T05:57:53;15.00;99.90
43151;DHT22;28755;51.478;5.702;2023-09-19T06:00:23;15.10;99.90
43151;DHT22;28755;51.478;5.702;2023-09-19T06:05:18;15.00;99.90
43151;DHT22;28755;51.478;5.702;2023-09-19T06:07:44;15.10;99.90
43151;DHT22;28755;51.478;5.702;2023-09-19T06:10:09;15.00;99.90
43151;DHT22;28755;51.478;5.702;2023-09-19T06:12:39;15.00;99.90
43151;DHT22;28755;51.478;5.702;2023-09-19T06:15:05;15.00;99.90
43151;DHT22;28755;51.478;5.702;2023-09-19T06:17:31;15.00;99.90
43151;DHT22;28755;51.478;5.702;2023-09-19T06:19:56;15.00;99.90
43151;DHT22;28755;51.478;5.702;2023-09-19T06:22:22;15.10;99.90
43151;DHT22;28755;51.478;5.702;2023-09-19T06:24:49;15.10;99.90
43151;DHT22;28755;51.478;5.702;2023-09-19T06:27:15;15.20;99.90
43151;DHT22;28755;51.478;5.702;2023-09-19T06:29:40;15.20;99.90
43151;DHT22;28755;51.478;5.702;2023-09-19T06:32:08;15.20;99.90
43151;DHT22;28755;51.478;5.702;2023-09-19T06:34:34;15.20;99.90
43151;DHT22;28755;51.478;5.702;2023-09-19T06:37:00;15.20;99.90
43151;DHT22;28755;51.478;5.702;2023-09-19T06:39:25;15.20;99.90
43151;DHT22;28755;51.478;5.702;2023-09-19T06:41:51;15.30;99.90
43151;DHT22;28755;51.478;5.702;2023-09-19T06:44:19;15.30;99.90
43151;DHT22;28755;51.478;5.702;2023-09-19T06:46:47;15.40;99.90
43151;DHT22;28755;51.478;5.702;2023-09-19T06:49:17;15.40;99.90
43151;DHT22;28755;51.478;5.702;2023-09-19T06:51:42;15.40;99.90
43151;DHT22;28755;51.478;5.702;2023-09-19T06:54:12;15.40;99.90
43151;DHT22;28755;51.478;5.702;2023-09-19T06:56:37;15.40;99.90
43151;DHT22;28755;51.478;5.702;2023-09-19T06:59:03;15.50;99.90
43151;DHT22;28755;51.478;5.702;2023-09-19T07:01:31;15.50;99.90
43151;DHT22;28755;51.478;5.702;2023-09-19T07:03:57;15.60;99.90
43151;DHT22;28755;51.478;5.702;2023-09-19T07:06:23;15.60;99.90
43151;DHT22;28755;51.478;5.702;2023-09-19T07:08:49;15.60;99.90
43151;DHT22;28755;51.478;5.702;2023-09-19T07:11:15;15.60;99.90
43151;DHT22;28755;51.478;5.702;2023-09-19T07:13:41;15.70;99.90
43151;DHT22;28755;51.478;5.702;2023-09-19T07:16:07;15.70;99.90
43151;DHT22;28755;51.478;5.702;2023-09-19T07:18:34;15.60;99.90
43151;DHT22;28755;51.478;5.702;2023-09-19T07:20:59;15.70;99.90
43151;DHT22;28755;51.478;5.702;2023-09-19T07:23:31;15.70;99.90
43151;DHT22;28755;51.478;5.702;2023-09-19T07:26:03;15.70;99.90
43151;DHT22;28755;51.478;5.702;2023-09-19T07:28:30;15.70;99.90
43151;DHT22;28755;51.478;5.702;2023-09-19T07:30:56;15.80;99.90
43151;DHT22;28755;51.478;5.702;2023-09-19T07:33:21;15.90;99.90
43151;DHT22;28755;51.478;5.702;2023-09-19T07:35:47;16.10;99.90
43151;DHT22;28755;51.478;5.702;2023-09-19T07:38:13;16.10;99.90
43151;DHT22;28755;51.478;5.702;2023-09-19T07:40:39;16.10;99.90
43151;DHT22;28755;51.478;5.702;2023-09-19T07:43:05;16.10;99.90
43151;DHT22;28755;51.478;5.702;2023-09-19T07:45:32;16.20;99.90
43151;DHT22;28755;51.478;5.702;2023-09-19T07:47:57;16.30;99.90
43151;DHT22;28755;51.478;5.702;2023-09-19T07:50:23;16.20;99.90
43151;DHT22;28755;51.478;5.702;2023-09-19T07:52:49;16.30;99.90
43151;DHT22;28755;51.478;5.702;2023-09-19T07:55:16;16.40;99.90
43151;DHT22;28755;51.478;5.702;2023-09-19T07:57:43;16.50;99.90
43151;DHT22;28755;51.478;5.702;2023-09-19T08:00:09;16.70;99.90
43151;DHT22;28755;51.478;5.702;2023-09-19T08:02:36;16.70;99.90
43151;DHT22;28755;51.478;5.702;2023-09-19T08:05:03;16.90;99.90
43151;DHT22;28755;51.478;5.702;2023-09-19T08:07:34;17.00;99.90
43151;DHT22;28755;51.478;5.702;2023-09-19T08:10:02;17.00;99.90
43151;DHT22;28755;51.478;5.702;2023-09-19T08:12:28;17.00;99.90
43151;DHT22;28755;51.478;5.702;2023-09-19T08:14:55;17.20;99.90
43151;DHT22;28755;51.478;5.702;2023-09-19T08:17:21;17.40;99.90
43151;DHT22;28755;51.478;5.702;2023-09-19T08:19:48;17.50;99.90
43151;DHT22;28755;51.478;5.702;2023-09-19T08:22:14;17.60;99.90
43151;DHT22;28755;51.478;5.702;2023-09-19T08:24:42;17.70;99.90
43151;DHT22;28755;51.478;5.702;2023-09-19T08:27:08;17.50;99.90
43151;DHT22;28755;51.478;5.702;2023-09-19T08:29:35;17.70;99.90
43151;DHT22;28755;51.478;5.702;2023-09-19T08:32:01;17.90;99.90
43151;DHT22;28755;51.478;5.702;2023-09-19T08:34:27;18.00;99.90
43151;DHT22;28755;51.478;5.702;2023-09-19T08:36:55;17.90;99.90
43151;DHT22;28755;51.478;5.702;2023-09-19T08:39:24;18.10;99.90
43151;DHT22;28755;51.478;5.702;2023-09-19T08:41:57;18.10;99.90
43151;DHT22;28755;51.478;5.702;2023-09-19T08:44:24;18.10;99.90
43151;DHT22;28755;51.478;5.702;2023-09-19T08:46:55;18.10;99.90
43151;DHT22;28755;51.478;5.702;2023-09-19T08:52:21;18.30;99.90
43151;DHT22;28755;51.478;5.702;2023-09-19T08:54:51;18.50;99.90
43151;DHT22;28755;51.478;5.702;2023-09-19T08:57:19;18.60;99.90
43151;DHT22;28755;51.478;5.702;2023-09-19T08:59:48;18.60;99.90
43151;DHT22;28755;51.478;5.702;2023-09-19T09:02:15;18.70;99.90
43151;DHT22;28755;51.478;5.702;2023-09-19T09:04:43;19.20;99.90
43151;DHT22;28755;51.478;5.702;2023-09-19T09:07:12;20.00;99.90
43151;DHT22;28755;51.478;5.702;2023-09-19T09:09:39;19.60;99.90
43151;DHT22;28755;51.478;5.702;2023-09-19T09:12:10;19.20;99.90
43151;DHT22;28755;51.478;5.702;2023-09-19T09:14:47;20.10;99.90
43151;DHT22;28755;51.478;5.702;2023-09-19T09:17:14;19.70;99.90
43151;DHT22;28755;51.478;5.702;2023-09-19T09:19:40;19.90;99.90
43151;DHT22;28755;51.478;5.702;2023-09-19T09:22:09;20.20;99.90
43151;DHT22;28755;51.478;5.702;2023-09-19T09:24:35;20.80;99.90
43151;DHT22;28755;51.478;5.702;2023-09-19T09:27:06;20.50;99.90
43151;DHT22;28755;51.478;5.702;2023-09-19T09:29:45;21.00;99.90
43151;DHT22;28755;51.478;5.702;2023-09-19T09:32:28;20.40;99.90
43151;DHT22;28755;51.478;5.702;2023-09-19T09:35:06;21.20;99.90
43151;DHT22;28755;51.478;5.702;2023-09-19T09:37:35;21.40;99.90
43151;DHT22;28755;51.478;5.702;2023-09-19T09:40:04;21.90;99.90
43151;DHT22;28755;51.478;5.702;2023-09-19T09:42:42;22.40;99.90
43151;DHT22;28755;51.478;5.702;2023-09-19T09:45:24;22.70;99.90
43151;DHT22;28755;51.478;5.702;2023-09-19T09:48:00;23.30;99.90
43151;DHT22;28755;51.478;5.702;2023-09-19T09:50:36;23.20;99.90
43151;DHT22;28755;51.478;5.702;2023-09-19T09:53:23;24.00;99.90
43151;DHT22;28755;51.478;5.702;2023-09-19T09:56:01;23.20;99.90
43151;DHT22;28755;51.478;5.702;2023-09-19T09:58:50;22.80;99.90
43151;DHT22;28755;51.478;5.702;2023-09-19T10:01:24;22.80;99.90
43151;DHT22;28755;51.478;5.702;2023-09-19T10:03:59;23.70;99.90
43151;DHT22;28755;51.478;5.702;2023-09-19T10:06:25;24.10;99.90
43151;DHT22;28755;51.478;5.702;2023-09-19T10:14:09;24.80;99.90
43151;DHT22;28755;51.478;5.702;2023-09-19T10:16:41;24.80;99.90
43151;DHT22;28755;51.478;5.702;2023-09-19T10:19:10;25.20;99.90
43151;DHT22;28755;51.478;5.702;2023-09-19T10:21:38;25.40;99.90
43151;DHT22;28755;51.478;5.702;2023-09-19T10:24:05;24.50;99.90
43151;DHT22;28755;51.478;5.702;2023-09-19T10:26:34;24.50;99.90
43151;DHT22;28755;51.478;5.702;2023-09-19T10:29:01;24.30;99.90
43151;DHT22;28755;51.478;5.702;2023-09-19T10:31:29;24.30;99.90
43151;DHT22;28755;51.478;5.702;2023-09-19T10:33:59;25.70;99.90
43151;DHT22;28755;51.478;5.702;2023-09-19T10:36:33;26.00;99.90
43151;DHT22;28755;51.478;5.702;2023-09-19T10:39:02;26.30;99.90
43151;DHT22;28755;51.478;5.702;2023-09-19T10:41:32;26.90;99.90
43151;DHT22;28755;51.478;5.702;2023-09-19T10:44:03;26.50;99.90
43151;DHT22;28755;51.478;5.702;2023-09-19T10:46:31;26.40;99.90
43151;DHT22;28755;51.478;5.702;2023-09-19T10:48:59;26.10;99.90
43151;DHT22;28755;51.478;5.702;2023-09-19T10:51:33;26.70;99.90
43151;DHT22;28755;51.478;5.702;2023-09-19T10:54:11;25.90;99.90
43151;DHT22;28755;51.478;5.702;2023-09-19T10:56:43;25.50;99.90
43151;DHT22;28755;51.478;5.702;2023-09-19T10:59:16;25.20;99.90
43151;DHT22;28755;51.478;5.702;2023-09-19T11:04:29;25.60;99.90
43151;DHT22;28755;51.478;5.702;2023-09-19T11:07:06;24.70;99.90
43151;DHT22;28755;51.478;5.702;2023-09-19T11:09:50;24.40;99.90
43151;DHT22;28755;51.478;5.702;2023-09-19T11:14:57;25.00;99.90
43151;DHT22;28755;51.478;5.702;2023-09-19T11:17:30;25.40;99.90
43151;DHT22;28755;51.478;5.702;2023-09-19T11:30:40;26.30;99.90
43151;DHT22;28755;51.478;5.702;2023-09-19T11:36:10;26.10;99.90
43151;DHT22;28755;51.478;5.702;2023-09-19T11:43:50;26.10;99.90
43151;DHT22;28755;51.478;5.702;2023-09-19T11:46:19;25.40;99.90
43151;DHT22;28755;51.478;5.702;2023-09-19T11:48:51;25.40;99.90
43151;DHT22;28755;51.478;5.702;2023-09-19T11:51:18;25.20;99.90
43151;DHT22;28755;51.478;5.702;2023-09-19T11:53:57;24.00;99.90
43151;DHT22;28755;51.478;5.702;2023-09-19T11:56:25;24.20;99.90
43151;DHT22;28755;51.478;5.702;2023-09-19T11:58:54;24.10;99.90
43151;DHT22;28755;51.478;5.702;2023-09-19T12:01:26;23.90;99.90
43151;DHT22;28755;51.478;5.702;2023-09-19T12:03:56;22.90;99.90
43151;DHT22;28755;51.478;5.702;2023-09-19T12:06:26;22.80;99.90
43151;DHT22;28755;51.478;5.702;2023-09-19T12:08:52;22.80;99.90
43151;DHT22;28755;51.478;5.702;2023-09-19T12:11:21;22.40;99.90
43151;DHT22;28755;51.478;5.702;2023-09-19T12:13:47;22.00;99.90
43151;DHT22;28755;51.478;5.702;2023-09-19T12:16:19;21.90;99.90
43151;DHT22;28755;51.478;5.702;2023-09-19T12:18:48;21.80;99.90
43151;DHT22;28755;51.478;5.702;2023-09-19T12:21:29;21.70;99.90
43151;DHT22;28755;51.478;5.702;2023-09-19T12:26:43;21.60;99.90
43151;DHT22;28755;51.478;5.702;2023-09-19T12:29:15;21.70;99.90
43151;DHT22;28755;51.478;5.702;2023-09-19T12:34:21;22.10;99.90
43151;DHT22;28755;51.478;5.702;2023-09-19T12:36:48;22.20;99.90
43151;DHT22;28755;51.478;5.702;2023-09-19T12:39:31;22.10;99.90
43151;DHT22;28755;51.478;5.702;2023-09-19T12:41:57;22.00;99.90
43151;DHT22;28755;51.478;5.702;2023-09-19T12:44:24;22.50;99.90
43151;DHT22;28755;51.478;5.702;2023-09-19T12:46:50;22.20;99.90
43151;DHT22;28755;51.478;5.702;2023-09-19T12:49:19;21.90;99.90
43151;DHT22;28755;51.478;5.702;2023-09-19T12:51:47;21.60;99.90
43151;DHT22;28755;51.478;5.702;2023-09-19T12:54:13;21.60;99.90
43151;DHT22;28755;51.478;5.702;2023-09-19T12:56:42;21.50;99.90
43151;DHT22;28755;51.478;5.702;2023-09-19T12:59:13;21.30;99.90
43151;DHT22;28755;51.478;5.702;2023-09-19T13:01:40;21.30;99.90
43151;DHT22;28755;51.478;5.702;2023-09-19T13:04:14;21.20;99.90
43151;DHT22;28755;51.478;5.702;2023-09-19T13:06:59;21.00;99.90
43151;DHT22;28755;51.478;5.702;2023-09-19T13:09:27;21.20;99.90
43151;DHT22;28755;51.478;5.702;2023-09-19T13:12:05;21.30;99.90
43151;DHT22;28755;51.478;5.702;2023-09-19T13:14:32;21.20;99.90
43151;DHT22;28755;51.478;5.702;2023-09-19T13:17:04;21.30;99.90
43151;DHT22;28755;51.478;5.702;2023-09-19T13:19:48;21.60;99.90
43151;DHT22;28755;51.478;5.702;2023-09-19T13:22:39;21.60;99.90
43151;DHT22;28755;51.478;5.702;2023-09-19T13:25:13;21.50;99.90
43151;DHT22;28755;51.478;5.702;2023-09-19T13:27:41;21.50;99.90
43151;DHT22;28755;51.478;5.702;2023-09-19T13:30:07;21.70;99.90
43151;DHT22;28755;51.478;5.702;2023-09-19T13:32:33;21.50;99.90
43151;DHT22;28755;51.478;5.702;2023-09-19T13:34:59;21.40;99.90
43151;DHT22;28755;51.478;5.702;2023-09-19T13:37:25;21.30;99.90
43151;DHT22;28755;51.478;5.702;2023-09-19T13:39:52;21.10;99.90
43151;DHT22;28755;51.478;5.702;2023-09-19T13:42:17;20.90;99.90
43151;DHT22;28755;51.478;5.702;2023-09-19T13:44:44;21.00;99.90
43151;DHT22;28755;51.478;5.702;2023-09-19T13:47:09;20.90;99.90
43151;DHT22;28755;51.478;5.702;2023-09-19T13:49:36;20.90;99.90
43151;DHT22;28755;51.478;5.702;2023-09-19T13:52:02;21.00;99.90
43151;DHT22;28755;51.478;5.702;2023-09-19T13:54:32;20.90;99.90
43151;DHT22;28755;51.478;5.702;2023-09-19T13:56:58;20.90;99.90
43151;DHT22;28755;51.478;5.702;2023-09-19T13:59:23;20.80;99.90
43151;DHT22;28755;51.478;5.702;2023-09-19T14:01:49;20.80;99.90
43151;DHT22;28755;51.478;5.702;2023-09-19T14:04:16;20.80;99.90
43151;DHT22;28755;51.478;5.702;2023-09-19T14:06:42;20.80;99.90
43151;DHT22;28755;51.478;5.702;2023-09-19T14:09:08;20.70;99.90
43151;DHT22;28755;51.478;5.702;2023-09-19T14:11:35;20.60;99.90
43151;DHT22;28755;51.478;5.702;2023-09-19T14:14:01;20.50;99.90
43151;DHT22;28755;51.478;5.702;2023-09-19T14:16:26;20.70;99.90
43151;DHT22;28755;51.478;5.702;2023-09-19T14:18:55;20.60;99.90
43151;DHT22;28755;51.478;5.702;2023-09-19T14:21:21;20.50;99.90
43151;DHT22;28755;51.478;5.702;2023-09-19T14:23:46;20.50;99.90
43151;DHT22;28755;51.478;5.702;2023-09-19T14:26:12;20.50;99.90
43151;DHT22;28755;51.478;5.702;2023-09-19T14:28:37;20.60;99.90
43151;DHT22;28755;51.478;5.702;2023-09-19T14:31:11;20.60;99.90
43151;DHT22;28755;51.478;5.702;2023-09-19T14:33:37;20.70;99.90
43151;DHT22;28755;51.478;5.702;2023-09-19T14:36:08;20.80;99.90
43151;DHT22;28755;51.478;5.702;2023-09-19T14:38:35;20.70;99.90
43151;DHT22;28755;51.478;5.702;2023-09-19T14:41:06;20.70;99.90
43151;DHT22;28755;51.478;5.702;2023-09-19T14:43:32;20.80;99.90
43151;DHT22;28755;51.478;5.702;2023-09-19T14:46:05;20.90;99.90
43151;DHT22;28755;51.478;5.702;2023-09-19T14:48:35;21.00;99.90
43151;DHT22;28755;51.478;5.702;2023-09-19T14:51:07;21.10;99.90
43151;DHT22;28755;51.478;5.702;2023-09-19T14:53:35;21.00;99.90
43151;DHT22;28755;51.478;5.702;2023-09-19T14:56:03;21.00;99.90
43151;DHT22;28755;51.478;5.702;2023-09-19T14:58:30;21.00;99.90
43151;DHT22;28755;51.478;5.702;2023-09-19T15:01:12;20.90;99.90
43151;DHT22;28755;51.478;5.702;2023-09-19T15:03:39;20.80;99.90
43151;DHT22;28755;51.478;5.702;2023-09-19T15:06:06;20.80;99.90
43151;DHT22;28755;51.478;5.702;2023-09-19T15:08:34;20.80;99.90
43151;DHT22;28755;51.478;5.702;2023-09-19T15:11:09;20.80;99.90
43151;DHT22;28755;51.478;5.702;2023-09-19T15:13:36;20.60;99.90
43151;DHT22;28755;51.478;5.702;2023-09-19T15:16:03;20.60;99.90
43151;DHT22;28755;51.478;5.702;2023-09-19T15:18:29;20.50;99.90
43151;DHT22;28755;51.478;5.702;2023-09-19T15:21:05;20.60;99.90
43151;DHT22;28755;51.478;5.702;2023-09-19T15:23:32;20.50;99.90
43151;DHT22;28755;51.478;5.702;2023-09-19T15:26:01;20.50;99.90
43151;DHT22;28755;51.478;5.702;2023-09-19T15:28:27;20.80;99.90
43151;DHT22;28755;51.478;5.702;2023-09-19T15:31:01;20.70;99.90
43151;DHT22;28755;51.478;5.702;2023-09-19T15:33:27;20.60;99.90
43151;DHT22;28755;51.478;5.702;2023-09-19T15:36:04;20.70;99.90
43151;DHT22;28755;51.478;5.702;2023-09-19T15:38:30;20.80;99.90
43151;DHT22;28755;51.478;5.702;2023-09-19T15:40:59;21.00;99.90
43151;DHT22;28755;51.478;5.702;2023-09-19T15:43:25;21.00;99.90
43151;DHT22;28755;51.478;5.702;2023-09-19T15:45:50;21.00;99.90
43151;DHT22;28755;51.478;5.702;2023-09-19T15:48:17;20.90;99.90
43151;DHT22;28755;51.478;5.702;2023-09-19T15:50:44;20.80;99.90
43151;DHT22;28755;51.478;5.702;2023-09-19T15:53:10;20.80;99.90
43151;DHT22;28755;51.478;5.702;2023-09-19T15:55:38;20.70;99.90
43151;DHT22;28755;51.478;5.702;2023-09-19T15:58:08;20.60;99.90
43151;DHT22;28755;51.478;5.702;2023-09-19T16:00:34;20.50;99.90
43151;DHT22;28755;51.478;5.702;2023-09-19T16:03:01;20.40;99.90
43151;DHT22;28755;51.478;5.702;2023-09-19T16:05:28;20.30;99.90
43151;DHT22;28755;51.478;5.702;2023-09-19T16:07:53;20.20;99.90
43151;DHT22;28755;51.478;5.702;2023-09-19T16:10:19;20.20;99.90
43151;DHT22;28755;51.478;5.702;2023-09-19T16:12:44;20.20;99.90
43151;DHT22;28755;51.478;5.702;2023-09-19T16:15:10;20.20;99.90
43151;DHT22;28755;51.478;5.702;2023-09-19T16:17:37;20.10;99.90
43151;DHT22;28755;51.478;5.702;2023-09-19T16:20:03;20.00;99.90
43151;DHT22;28755;51.478;5.702;2023-09-19T16:22:29;20.00;99.90
43151;DHT22;28755;51.478;5.702;2023-09-19T16:24:54;20.00;99.90
43151;DHT22;28755;51.478;5.702;2023-09-19T16:27:20;20.00;99.90
43151;DHT22;28755;51.478;5.702;2023-09-19T16:29:47;20.00;99.90